Time;durP1;ratioP1;P1;durP2;ratioP2;P2;SDS_P1;SDS_P2;PMS_P1;PMS_P2;Temp;Humidity;BMP_temperature;BMP_pressure;BME280_temperature;BME280_humidity;BME280_pressure;Samples;Min_cycle;Max_cycle;Signal;HPM_P1;HPM_P2
2023/04/24 00:00:47;;;;;;;;;;;;;;;;;;5051654;28;19991;-62
2023/04/24 00:03:13;;;;;;;;;;;;;;;;;;5051813;28;20298;-62
2023/04/24 00:05:40;;;;;;;;;;;;;;;;;;5051348;28;20390;-62
2023/04/24 00:08:06;;;;;;;;;;;;;;;;;;5051951;28;19929;-62
2023/04/24 00:10:31;;;;;;;;;;;;;;;;;;5052105;28;20046;-62
2023/04/24 00:12:57;;;;;;;;;;;;;;;;;;5050924;28;20379;-62
2023/04/24 00:15:23;;;;;;;;;;;;;;;;;;5050144;28;19925;-62
2023/04/24 00:17:49;;;;;;;;;;;;;;;;;;5051585;28;20325;-62
2023/04/24 00:20:15;;;;;;;;;;;;;;;;;;5050833;28;19925;-62
2023/04/24 00:22:41;;;;;;;;;;;;;;;;;;5050916;28;20367;-62
2023/04/24 00:25:07;;;;;;;;;;;;;;;;;;5050047;28;19927;-62
2023/04/24 00:27:34;;;;;;;;;;;;;;;;;;5050898;28;20449;-62
2023/04/24 00:30:00;;;;;;;;;;;;;;;;;;5051430;28;19927;-62
2023/04/24 00:32:26;;;;;;;;;;;;;;;;;;5051383;28;19925;-62
2023/04/24 00:34:52;;;;;;;;;;;;;;;;;;5050770;28;20450;-62
2023/04/24 00:37:18;;;;;;;;;;;;;;;;;;5051212;28;19932;-62
2023/04/24 00:39:44;;;;;;;;;;;;;;;;;;5051223;28;20431;-62
2023/04/24 00:42:10;;;;;;;;;;;;;;;;;;5050273;28;20421;-62
2023/04/24 00:44:36;;;;;;;;;;;;;;;;;;5050876;28;19932;-62
2023/04/24 00:47:02;;;;;;;;;;;;;;;;;;5050922;28;19921;-62
2023/04/24 00:49:28;;;;;;;;;;;;;;;;;;5050263;28;19927;-62
2023/04/24 00:51:54;;;;;;;;;;;;;;;;;;5049332;28;20302;-62
2023/04/24 00:54:20;;;;;;;;;;;;;;;;;;5050944;28;19924;-62
2023/04/24 00:56:46;;;;;;;;;;;;;;;;;;5050091;28;19972;-62
2023/04/24 00:59:12;;;;;;;;;;;;;;;;;;5050850;28;19924;-62
2023/04/24 01:01:38;;;;;;;;;;;;;;;;;;5050782;28;19925;-62
2023/04/24 01:04:03;;;;;;;;;;;;;;;;;;5050727;28;20403;-62
2023/04/24 01:06:30;;;;;;;;;;;;;;;;;;5050579;28;19931;-62
2023/04/24 01:08:56;;;;;;;;;;;;;;;;;;5050201;28;19928;-62
2023/04/24 01:11:22;;;;;;;;;;;;;;;;;;5050303;28;19924;-62
2023/04/24 01:13:51;;;;;;;;;;;;;;;;;;5050105;28;20287;-62
2023/04/24 01:16:19;;;;;;;;;;;;;;;;;;5050614;28;19974;-62
2023/04/24 01:18:45;;;;;;;;;;;;;;;;;;5050684;28;20287;-62
2023/04/24 01:21:11;;;;;;;;;;;;;;;;;;5049779;28;19921;-62
2023/04/24 01:23:37;;;;;;;;;;;;;;;;;;5050370;28;19932;-62
2023/04/24 01:26:03;;;;;;;;;;;;;;;;;;5050366;28;19928;-62
2023/04/24 01:28:29;;;;;;;;;;;;;;;;;;5049858;28;19935;-62
2023/04/24 01:30:55;;;;;;;;;;;;;;;;;;5050438;28;19928;-62
2023/04/24 01:33:21;;;;;;;;;;;;;;;;;;5050110;28;20298;-62
2023/04/24 01:35:47;;;;;;;;;;;;;;;;;;5049916;28;19928;-62
2023/04/24 01:38:13;;;;;;;;;;;;;;;;;;5050610;28;19925;-62
2023/04/24 01:40:39;;;;;;;;;;;;;;;;;;5050327;28;19920;-62
2023/04/24 01:43:05;;;;;;;;;;;;;;;;;;5050112;28;20363;-62
2023/04/24 01:45:31;;;;;;;;;;;;;;;;;;5050399;28;19931;-62
2023/04/24 01:47:57;;;;;;;;;;;;;;;;;;5050154;28;19932;-62
2023/04/24 01:50:22;;;;;;;;;;;;;;;;;;5049460;28;20122;-62
2023/04/24 01:52:48;;;;;;;;;;;;;;;;;;5050124;28;19932;-62
2023/04/24 01:55:14;;;;;;;;;;;;;;;;;;5050267;28;19921;-62
2023/04/24 01:57:40;;;;;;;;;;;;;;;;;;5048411;28;19924;-62
2023/04/24 02:00:06;;;;;;;;;;;;;;;;;;5050523;28;20008;-62
2023/04/24 02:02:32;;;;;;;;;;;;;;;;;;5050410;28;20387;-61
2023/04/24 02:04:58;;;;;;;;;;;;;;;;;;5049920;28;19983;-61
2023/04/24 02:07:24;;;;;;;;;;;;;;;;;;5050309;28;19924;-62
2023/04/24 02:09:50;;;;;;;;;;;;;;;;;;5050489;28;19970;-62
2023/04/24 02:12:17;;;;;;;;;;;;;;;;;;5049655;28;20260;-62
2023/04/24 02:14:43;;;;;;;;;;;;;;;;;;5050450;28;19928;-62
2023/04/24 02:17:09;;;;;;;;;;;;;;;;;;5049985;28;19921;-62
2023/04/24 02:19:35;;;;;;;;;;;;;;;;;;5049589;28;20015;-62
2023/04/24 02:22:01;;;;;;;;;;;;;;;;;;5051274;28;19925;-62
2023/04/24 02:24:26;;;;;;;;;;;;;;;;;;5054245;28;19935;-62
2023/04/24 02:26:52;;;;;;;;;;;;;;;;;;5053662;28;19928;-62
2023/04/24 02:29:18;;;;;;;;;;;;;;;;;;5054508;28;20371;-62
2023/04/24 02:31:44;;;;;;;;;;;;;;;;;;5054224;28;19929;-62
2023/04/24 02:34:10;;;;;;;;;;;;;;;;;;5053687;28;19978;-62
2023/04/24 02:36:36;;;;;;;;;;;;;;;;;;5054277;28;19921;-62
2023/04/24 02:39:03;;;;;;;;;;;;;;;;;;5054449;28;19928;-62
2023/04/24 02:41:31;;;;;;;;;;;;;;;;;;5053294;28;19939;-62
2023/04/24 02:43:57;;;;;;;;;;;;;;;;;;5053976;28;19927;-62
2023/04/24 02:46:23;;;;;;;;;;;;;;;;;;5053671;28;20015;-62
2023/04/24 02:48:49;;;;;;;;;;;;;;;;;;5053860;28;19928;-62
2023/04/24 02:51:15;;;;;;;;;;;;;;;;;;5053803;28;19960;-62
2023/04/24 02:53:41;;;;;;;;;;;;;;;;;;5053792;28;19931;-62
2023/04/24 02:56:07;;;;;;;;;;;;;;;;;;5053097;28;19924;-62
2023/04/24 02:58:33;;;;;;;;;;;;;;;;;;5053537;28;19983;-62
2023/04/24 03:00:59;;;;;;;;;;;;;;;;;;5053489;28;20367;-62
2023/04/24 03:03:25;;;;;;;;;;;;;;;;;;5052888;28;19975;-62
2023/04/24 03:05:51;;;;;;;;;;;;;;;;;;5053719;28;19920;-62
2023/04/24 03:08:17;;;;;;;;;;;;;;;;;;5053858;28;19929;-62
2023/04/24 03:10:44;;;;;;;;;;;;;;;;;;5052915;28;20386;-62
2023/04/24 03:13:10;;;;;;;;;;;;;;;;;;5053357;28;19924;-62
2023/04/24 03:15:36;;;;;;;;;;;;;;;;;;5053328;28;20325;-62
2023/04/24 03:18:02;;;;;;;;;;;;;;;;;;5053138;28;19921;-62
2023/04/24 03:20:28;;;;;;;;;;;;;;;;;;5052908;28;19931;-62
2023/04/24 03:22:54;;;;;;;;;;;;;;;;;;5052974;28;20341;-62
2023/04/24 03:25:20;;;;;;;;;;;;;;;;;;5052935;28;19925;-62
2023/04/24 03:27:46;;;;;;;;;;;;;;;;;;5053289;28;19932;-62
2023/04/24 03:30:12;;;;;;;;;;;;;;;;;;5053264;28;19921;-62
2023/04/24 03:32:39;;;;;;;;;;;;;;;;;;5052259;28;19932;-62
2023/04/24 03:35:05;;;;;;;;;;;;;;;;;;5053173;28;19921;-62
2023/04/24 03:37:30;;;;;;;;;;;;;;;;;;5053342;28;19932;-62
2023/04/24 03:39:56;;;;;;;;;;;;;;;;;;5052642;28;19921;-62
2023/04/24 03:42:22;;;;;;;;;;;;;;;;;;5051898;28;19924;-62
2023/04/24 03:44:48;;;;;;;;;;;;;;;;;;5052951;28;20006;-62
2023/04/24 03:47:14;;;;;;;;;;;;;;;;;;5051327;28;20391;-62
2023/04/24 03:49:40;;;;;;;;;;;;;;;;;;5052825;28;19960;-62
2023/04/24 03:52:06;;;;;;;;;;;;;;;;;;5052535;28;20014;-62
2023/04/24 03:54:32;;;;;;;;;;;;;;;;;;5052519;28;19924;-62
2023/04/24 03:56:58;;;;;;;;;;;;;;;;;;5051721;28;19921;-62
2023/04/24 03:59:24;;;;;;;;;;;;;;;;;;5052707;28;20303;-62
2023/04/24 04:01:50;;;;;;;;;;;;;;;;;;5052272;28;19927;-62
2023/04/24 04:04:16;;;;;;;;;;;;;;;;;;5052464;28;20004;-62
2023/04/24 04:06:42;;;;;;;;;;;;;;;;;;5051563;28;19921;-63
2023/04/24 04:09:08;;;;;;;;;;;;;;;;;;5051312;28;19994;-63
2023/04/24 04:11:35;;;;;;;;;;;;;;;;;;5051610;28;19932;-63
2023/04/24 04:14:01;;;;;;;;;;;;;;;;;;5051631;28;19921;-63
2023/04/24 04:16:27;;;;;;;;;;;;;;;;;;5051554;28;19920;-63
2023/04/24 04:18:52;;;;;;;;;;;;;;;;;;5049592;28;20379;-63
2023/04/24 04:21:19;;;;;;;;;;;;;;;;;;5051839;28;19921;-64
2023/04/24 04:23:45;;;;;;;;;;;;;;;;;;5051583;28;20156;-63
2023/04/24 04:26:11;;;;;;;;;;;;;;;;;;5050696;28;19931;-63
2023/04/24 04:28:38;;;;;;;;;;;;;;;;;;5051172;28;19928;-63
2023/04/24 04:31:04;;;;;;;;;;;;;;;;;;5051304;28;20364;-63
2023/04/24 04:33:30;;;;;;;;;;;;;;;;;;5050720;28;19932;-63
2023/04/24 04:35:58;;;;;;;;;;;;;;;;;;5050717;28;19946;-63
2023/04/24 04:38:26;;;;;;;;;;;;;;;;;;5050984;28;19920;-63
2023/04/24 04:40:52;;;;;;;;;;;;;;;;;;5050373;28;19920;-63
2023/04/24 04:43:18;;;;;;;;;;;;;;;;;;5050475;28;19921;-63
2023/04/24 04:45:44;;;;;;;;;;;;;;;;;;5050488;28;19935;-63
2023/04/24 04:48:13;;;;;;;;;;;;;;;;;;5050242;28;20376;-63
2023/04/24 04:50:39;;;;;;;;;;;;;;;;;;5050930;28;19924;-63
2023/04/24 04:53:05;;;;;;;;;;;;;;;;;;5051025;28;19932;-63
2023/04/24 04:55:31;;;;;;;;;;;;;;;;;;5050297;28;19927;-63
2023/04/24 04:57:57;;;;;;;;;;;;;;;;;;5050229;28;20011;-63
2023/04/24 05:00:27;;;;;;;;;;;;;;;;;;5050601;28;19928;-63
2023/04/24 05:02:52;;;;;;;;;;;;;;;;;;5049938;28;19921;-63
2023/04/24 05:05:18;;;;;;;;;;;;;;;;;;5050678;28;19931;-63
2023/04/24 05:07:44;;;;;;;;;;;;;;;;;;5048879;28;19929;-63
2023/04/24 05:10:10;;;;;;;;;;;;;;;;;;5049905;28;20063;-62
2023/04/24 05:12:36;;;;;;;;;;;;;;;;;;5050033;28;19924;-62
2023/04/24 05:15:02;;;;;;;;;;;;;;;;;;5050207;28;19928;-62
2023/04/24 05:17:28;;;;;;;;;;;;;;;;;;5049814;28;20015;-63
2023/04/24 05:19:54;;;;;;;;;;;;;;;;;;5049955;28;20358;-63
2023/04/24 05:22:21;;;;;;;;;;;;;;;;;;5049842;28;19925;-62
2023/04/24 05:24:47;;;;;;;;;;;;;;;;;;5049030;28;19925;-63
2023/04/24 05:27:13;;;;;;;;;;;;;;;;;;5048975;28;19928;-63
2023/04/24 05:29:39;;;;;;;;;;;;;;;;;;5050067;28;20421;-63
2023/04/24 05:32:05;;;;;;;;;;;;;;;;;;5048863;28;19925;-64
2023/04/24 05:34:31;;;;;;;;;;;;;;;;;;5049854;28;19925;-64
2023/04/24 05:36:57;;;;;;;;;;;;;;;;;;5049633;28;19921;-64
2023/04/24 05:39:24;;;;;;;;;;;;;;;;;;5049028;28;19936;-63
2023/04/24 05:41:50;;;;;;;;;;;;;;;;;;5049790;28;19971;-63
2023/04/24 05:44:16;;;;;;;;;;;;;;;;;;5049245;28;20390;-63
2023/04/24 05:46:42;;;;;;;;;;;;;;;;;;5049160;28;19948;-63
2023/04/24 05:49:08;;;;;;;;;;;;;;;;;;5049318;28;19928;-63
2023/04/24 05:51:34;;;;;;;;;;;;;;;;;;5049459;28;19925;-64
2023/04/24 05:54:01;;;;;;;;;;;;;;;;;;5048838;28;19920;-63
2023/04/24 05:56:27;;;;;;;;;;;;;;;;;;5049429;28;19960;-63
2023/04/24 05:58:52;;;;;;;;;;;;;;;;;;5049115;28;20013;-63
2023/04/24 06:01:19;;;;;;;;;;;;;;;;;;5048443;28;20436;-63
2023/04/24 06:03:45;;;;;;;;;;;;;;;;;;5048684;28;19925;-63
2023/04/24 06:06:11;;;;;;;;;;;;;;;;;;5049555;28;19921;-63
2023/04/24 06:08:37;;;;;;;;;;;;;;;;;;5048302;28;20424;-63
2023/04/24 06:11:03;;;;;;;;;;;;;;;;;;5047931;28;19921;-63
2023/04/24 06:13:28;;;;;;;;;;;;;;;;;;5049346;28;20011;-63
2023/04/24 06:15:54;;;;;;;;;;;;;;;;;;5048440;28;20405;-63
2023/04/24 06:18:20;;;;;;;;;;;;;;;;;;5049014;28;19929;-63
2023/04/24 06:20:46;;;;;;;;;;;;;;;;;;5049176;28;20020;-63
2023/04/24 06:23:12;;;;;;;;;;;;;;;;;;5047827;28;19964;-63
2023/04/24 06:25:38;;;;;;;;;;;;;;;;;;5050397;28;19921;-63
2023/04/24 06:28:04;;;;;;;;;;;;;;;;;;5050183;28;19947;-63
2023/04/24 06:30:30;;;;;;;;;;;;;;;;;;5049612;28;19931;-62
2023/04/24 06:32:56;;;;;;;;;;;;;;;;;;5049095;28;19921;-62
2023/04/24 06:35:22;;;;;;;;;;;;;;;;;;5049439;28;19925;-62
2023/04/24 06:37:48;;;;;;;;;;;;;;;;;;5049585;28;19929;-63
2023/04/24 06:40:14;;;;;;;;;;;;;;;;;;5049833;28;19925;-63
2023/04/24 06:42:40;;;;;;;;;;;;;;;;;;5048901;28;19963;-63
2023/04/24 06:45:06;;;;;;;;;;;;;;;;;;5048770;28;19960;-63
2023/04/24 06:47:32;;;;;;;;;;;;;;;;;;5049674;28;19974;-64
2023/04/24 06:49:58;;;;;;;;;;;;;;;;;;5049787;28;19921;-65
2023/04/24 06:52:24;;;;;;;;;;;;;;;;;;5047647;28;20359;-65
2023/04/24 06:54:50;;;;;;;;;;;;;;;;;;5049561;28;20293;-64
2023/04/24 06:57:16;;;;;;;;;;;;;;;;;;5027581;28;19992;-62
2023/04/24 06:59:42;;;;;;;;;;;;;;;;;;5047778;28;19921;-63
2023/04/24 07:02:08;;;;;;;;;;;;;;;;;;5049489;28;19997;-63
2023/04/24 07:04:34;;;;;;;;;;;;;;;;;;5049292;28;19928;-65
2023/04/24 07:07:00;;;;;;;;;;;;;;;;;;5048414;28;20565;-63
2023/04/24 07:09:26;;;;;;;;;;;;;;;;;;5051823;28;19936;-63
2023/04/24 07:11:53;;;;;;;;;;;;;;;;;;5048886;28;19924;-63
2023/04/24 07:14:19;;;;;;;;;;;;;;;;;;5056079;28;19946;-62
2023/04/24 07:16:48;;;;;;;;;;;;;;;;;;5049743;28;19921;-61
2023/04/24 07:19:14;;;;;;;;;;;;;;;;;;5052662;28;19956;-61
2023/04/24 07:21:40;;;;;;;;;;;;;;;;;;5051414;28;19963;-64
2023/04/24 07:24:10;;;;;;;;;;;;;;;;;;5053430;28;20411;-65
2023/04/24 07:26:36;;;;;;;;;;;;;;;;;;5052009;28;19951;-64
2023/04/24 07:29:02;;;;;;;;;;;;;;;;;;5051701;28;19932;-63
2023/04/24 07:31:28;;;;;;;;;;;;;;;;;;5051597;28;19925;-63
2023/04/24 07:33:54;;;;;;;;;;;;;;;;;;5052171;28;19925;-63
2023/04/24 07:36:20;;;;;;;;;;;;;;;;;;5050107;28;19924;-63
2023/04/24 07:38:46;;;;;;;;;;;;;;;;;;5052485;28;19921;-62
2023/04/24 07:41:12;;;;;;;;;;;;;;;;;;5051233;28;19924;-63
2023/04/24 07:43:37;;;;;;;;;;;;;;;;;;5052619;28;20062;-63
2023/04/24 07:46:03;;;;;;;;;;;;;;;;;;5054561;28;19933;-64
2023/04/24 07:48:29;;;;;;;;;;;;;;;;;;5052042;28;19998;-63
2023/04/24 07:50:55;;;;;;;;;;;;;;;;;;5047933;28;19921;-62
2023/04/24 07:53:21;;;;;;;;;;;;;;;;;;5050362;28;19924;-63
2023/04/24 07:55:47;;;;;;;;;;;;;;;;;;5052062;28;19925;-63
2023/04/24 07:58:13;;;;;;;;;;;;;;;;;;5047457;28;20311;-63
2023/04/24 08:00:39;;;;;;;;;;;;;;;;;;5049948;28;19928;-64
2023/04/24 08:03:05;;;;;;;;;;;;;;;;;;5052760;28;19932;-62
2023/04/24 08:05:31;;;;;;;;;;;;;;;;;;5050222;28;19921;-63
2023/04/24 08:07:57;;;;;;;;;;;;;;;;;;5050593;28;20023;-64
2023/04/24 08:10:23;;;;;;;;;;;;;;;;;;5050670;28;19986;-64
2023/04/24 08:12:49;;;;;;;;;;;;;;;;;;5051117;28;20322;-63
2023/04/24 08:15:15;;;;;;;;;;;;;;;;;;5051039;28;19920;-63
2023/04/24 08:17:41;;;;;;;;;;;;;;;;;;5046764;28;19990;-64
2023/04/24 08:20:13;;;;;;;;;;;;;;;;;;5052209;28;19928;-63
2023/04/24 08:22:38;;;;;;;;;;;;;;;;;;5049309;28;19931;-64
2023/04/24 08:25:05;;;;;;;;;;;;;;;;;;5050367;28;19925;-63
2023/04/24 08:27:31;;;;;;;;;;;;;;;;;;5050620;28;20363;-64
2023/04/24 08:29:57;;;;;;;;;;;;;;;;;;5052195;28;19924;-63
2023/04/24 08:32:23;;;;;;;;;;;;;;;;;;5050914;28;19975;-63
2023/04/24 08:34:48;;;;;;;;;;;;;;;;;;5053475;28;19928;-63
2023/04/24 08:37:14;;;;;;;;;;;;;;;;;;5046739;28;19979;-62
2023/04/24 08:39:40;;;;;;;;;;;;;;;;;;5045891;28;19925;-63
2023/04/24 08:42:07;;;;;;;;;;;;;;;;;;5056219;28;19920;-62
2023/04/24 08:44:33;;;;;;;;;;;;;;;;;;5081390;28;20370;-63
2023/04/24 08:46:59;;;;;;;;;;;;;;;;;;5047034;28;19970;-63
2023/04/24 08:49:25;;;;;;;;;;;;;;;;;;5049294;28;19924;-62
2023/04/24 08:51:51;;;;;;;;;;;;;;;;;;5050040;28;19931;-63
2023/04/24 08:54:17;;;;;;;;;;;;;;;;;;5053760;28;19956;-63
2023/04/24 08:56:43;;;;;;;;;;;;;;;;;;5048644;28;20433;-62
2023/04/24 08:59:09;;;;;;;;;;;;;;;;;;5049925;28;19925;-62
2023/04/24 09:01:35;;;;;;;;;;;;;;;;;;5050195;28;19927;-62
2023/04/24 09:04:01;;;;;;;;;;;;;;;;;;5052768;28;19924;-63
2023/04/24 09:06:27;;;;;;;;;;;;;;;;;;5052242;28;19974;-64
2023/04/24 09:08:53;;;;;;;;;;;;;;;;;;5083198;28;19972;-64
2023/04/24 09:11:19;;;;;;;;;;;;;;;;;;5048464;28;19966;-63
2023/04/24 09:13:45;;;;;;;;;;;;;;;;;;5048586;28;19931;-62
2023/04/24 09:16:11;;;;;;;;;;;;;;;;;;5050125;28;20281;-63
2023/04/24 09:18:37;;;;;;;;;;;;;;;;;;5050833;28;19925;-62
2023/04/24 09:21:03;;;;;;;;;;;;;;;;;;5050578;28;20153;-62
2023/04/24 09:23:29;;;;;;;;;;;;;;;;;;5050864;28;19929;-62
2023/04/24 09:25:55;;;;;;;;;;;;;;;;;;5052685;28;19928;-62
2023/04/24 09:28:21;;;;;;;;;;;;;;;;;;5049390;28;19925;-61
2023/04/24 09:30:47;;;;;;;;;;;;;;;;;;5049274;28;20000;-63
2023/04/24 09:33:13;;;;;;;;;;;;;;;;;;5049150;28;19925;-62
2023/04/24 09:35:39;;;;;;;;;;;;;;;;;;5041415;28;19929;-62
2023/04/24 09:38:05;;;;;;;;;;;;;;;;;;5051892;28;19921;-62
2023/04/24 09:40:31;;;;;;;;;;;;;;;;;;5051174;28;20010;-62
2023/04/24 09:43:00;;;;;;;;;;;;;;;;;;5053381;28;19960;-63
2023/04/24 09:45:26;;;;;;;;;;;;;;;;;;5052249;28;19920;-65
2023/04/24 09:47:55;;;;;;;;;;;;;;;;;;5047466;28;19935;-62
2023/04/24 09:50:21;;;;;;;;;;;;;;;;;;5046286;28;19921;-62
2023/04/24 09:52:47;;;;;;;;;;;;;;;;;;5048265;28;19943;-61
2023/04/24 09:55:13;;;;;;;;;;;;;;;;;;5052996;28;19924;-63
2023/04/24 09:57:39;;;;;;;;;;;;;;;;;;5041555;28;19936;-62
2023/04/24 10:00:06;;;;;;;;;;;;;;;;;;5049833;28;20029;-61
2023/04/24 10:02:32;;;;;;;;;;;;;;;;;;5053623;28;19924;-61
2023/04/24 10:04:59;;;;;;;;;;;;;;;;;;5051673;28;19952;-63
2023/04/24 10:07:25;;;;;;;;;;;;;;;;;;5052607;28;20105;-62
2023/04/24 10:09:51;;;;;;;;;;;;;;;;;;5048085;28;20455;-62
2023/04/24 10:12:17;;;;;;;;;;;;;;;;;;5051393;28;19925;-64
2023/04/24 10:14:43;;;;;;;;;;;;;;;;;;5053133;28;20271;-61
2023/04/24 10:17:09;;;;;;;;;;;;;;;;;;5052792;28;20003;-61
2023/04/24 10:19:36;;;;;;;;;;;;;;;;;;5046975;28;19925;-62
2023/04/24 10:22:02;;;;;;;;;;;;;;;;;;5043029;28;20122;-64
2023/04/24 10:24:28;;;;;;;;;;;;;;;;;;5062005;28;20073;-63
2023/04/24 10:26:54;;;;;;;;;;;;;;;;;;5048977;28;19929;-63
2023/04/24 10:29:21;;;;;;;;;;;;;;;;;;5046504;28;19933;-63
2023/04/24 10:31:47;;;;;;;;;;;;;;;;;;5053785;28;20008;-63
2023/04/24 10:34:13;;;;;;;;;;;;;;;;;;5047691;28;19931;-62
2023/04/24 10:36:39;;;;;;;;;;;;;;;;;;5046911;28;19928;-63
2023/04/24 10:39:05;;;;;;;;;;;;;;;;;;5049849;28;19964;-63
2023/04/24 10:41:31;;;;;;;;;;;;;;;;;;5048291;28;19955;-63
2023/04/24 10:43:57;;;;;;;;;;;;;;;;;;5053409;28;19921;-63
2023/04/24 10:46:23;;;;;;;;;;;;;;;;;;5029534;28;19925;-63
2023/04/24 10:48:48;;;;;;;;;;;;;;;;;;5055061;28;19999;-63
2023/04/24 10:51:15;;;;;;;;;;;;;;;;;;5049265;28;19925;-63
2023/04/24 10:53:40;;;;;;;;;;;;;;;;;;5050788;28;19925;-63
2023/04/24 10:56:06;;;;;;;;;;;;;;;;;;5058062;28;19939;-62
2023/04/24 10:58:32;;;;;;;;;;;;;;;;;;5055574;28;19924;-63
2023/04/24 11:00:58;;;;;;;;;;;;;;;;;;5053313;28;19921;-63
2023/04/24 11:03:24;;;;;;;;;;;;;;;;;;5052232;28;19951;-63
2023/04/24 11:05:51;;;;;;;;;;;;;;;;;;5051148;28;20279;-63
2023/04/24 11:08:17;;;;;;;;;;;;;;;;;;5052865;28;20798;-63
2023/04/24 11:10:43;;;;;;;;;;;;;;;;;;5058274;28;19936;-62
2023/04/24 11:13:09;;;;;;;;;;;;;;;;;;5052138;28;19920;-63
2023/04/24 11:15:35;;;;;;;;;;;;;;;;;;5043741;28;19929;-63
2023/04/24 11:18:01;;;;;;;;;;;;;;;;;;5039585;28;19921;-62
2023/04/24 11:20:27;;;;;;;;;;;;;;;;;;5042925;28;19939;-63
2023/04/24 11:22:54;;;;;;;;;;;;;;;;;;5055027;28;19948;-63
2023/04/24 11:25:21;;;;;;;;;;;;;;;;;;5041708;28;19932;-63
2023/04/24 11:27:48;;;;;;;;;;;;;;;;;;5048784;28;19932;-62
2023/04/24 11:30:14;;;;;;;;;;;;;;;;;;5045736;28;19928;-62
2023/04/24 11:32:40;;;;;;;;;;;;;;;;;;5055054;28;20417;-62
2023/04/24 11:35:06;;;;;;;;;;;;;;;;;;5032779;28;19921;-62
2023/04/24 11:37:32;;;;;;;;;;;;;;;;;;5053049;28;19970;-63
2023/04/24 11:39:58;;;;;;;;;;;;;;;;;;5051562;28;19951;-63
2023/04/24 11:42:25;;;;;;;;;;;;;;;;;;5046161;28;19924;-61
2023/04/24 11:44:51;;;;;;;;;;;;;;;;;;5048490;28;19928;-63
2023/04/24 11:47:17;;;;;;;;;;;;;;;;;;5047763;28;19924;-64
2023/04/24 11:49:43;;;;;;;;;;;;;;;;;;5049553;28;19936;-61
2023/04/24 11:52:10;;;;;;;;;;;;;;;;;;5054896;28;19924;-62
2023/04/24 11:54:36;;;;;;;;;;;;;;;;;;5050689;28;19925;-62
2023/04/24 11:57:02;;;;;;;;;;;;;;;;;;5050729;28;19924;-63
2023/04/24 11:59:28;;;;;;;;;;;;;;;;;;5045023;28;19920;-62
2023/04/24 12:01:54;;;;;;;;;;;;;;;;;;5050388;28;20374;-61
2023/04/24 12:04:20;;;;;;;;;;;;;;;;;;5047747;28;19925;-60
2023/04/24 12:06:46;;;;;;;;;;;;;;;;;;5039980;28;20007;-58
2023/04/24 12:09:12;;;;;;;;;;;;;;;;;;5045777;28;20066;-59
2023/04/24 12:11:38;;;;;;;;;;;;;;;;;;5051577;28;20015;-59
2023/04/24 12:14:04;;;;;;;;;;;;;;;;;;5050019;28;19929;-58
2023/04/24 12:16:31;;;;;;;;;;;;;;;;;;5050999;28;19932;-59
2023/04/24 12:18:57;;;;;;;;;;;;;;;;;;5048413;28;19932;-58
2023/04/24 12:21:26;;;;;;;;;;;;;;;;;;5050595;28;19924;-59
2023/04/24 12:23:52;;;;;;;;;;;;;;;;;;5051301;28;19935;-59
2023/04/24 12:26:18;;;;;;;;;;;;;;;;;;5050955;28;19925;-57
2023/04/24 12:28:44;;;;;;;;;;;;;;;;;;5051127;28;19972;-57
2023/04/24 12:31:10;;;;;;;;;;;;;;;;;;5050785;28;19925;-59
2023/04/24 12:33:36;;;;;;;;;;;;;;;;;;5050328;28;19928;-60
2023/04/24 12:36:02;;;;;;;;;;;;;;;;;;5051184;28;19924;-58
2023/04/24 12:38:39;;;;;;;;;;;;;;;;;;5049587;28;20335;-59
2023/04/24 12:41:05;;;;;;;;;;;;;;;;;;5050341;28;19932;-59
2023/04/24 12:43:31;;;;;;;;;;;;;;;;;;5051382;28;19924;-59
2023/04/24 12:45:58;;;;;;;;;;;;;;;;;;5049484;28;20279;-59
2023/04/24 12:48:24;;;;;;;;;;;;;;;;;;5048879;28;19928;-60
2023/04/24 12:50:50;;;;;;;;;;;;;;;;;;5049247;28;20458;-61
2023/04/24 12:53:16;;;;;;;;;;;;;;;;;;5048825;28;19939;-61
2023/04/24 12:55:42;;;;;;;;;;;;;;;;;;5050458;28;19968;-61
2023/04/24 12:58:08;;;;;;;;;;;;;;;;;;5051138;28;19925;-61
2023/04/24 13:00:34;;;;;;;;;;;;;;;;;;5044118;28;19929;-61
2023/04/24 13:03:00;;;;;;;;;;;;;;;;;;5041581;28;20000;-62
2023/04/24 13:05:26;;;;;;;;;;;;;;;;;;5049978;28;19993;-61
2023/04/24 13:07:52;;;;;;;;;;;;;;;;;;5050708;28;19990;-62
2023/04/24 13:10:18;;;;;;;;;;;;;;;;;;5049498;28;19951;-60
2023/04/24 13:12:45;;;;;;;;;;;;;;;;;;5050582;28;19935;-60
2023/04/24 13:15:11;;;;;;;;;;;;;;;;;;5057570;28;19966;-60
2023/04/24 13:17:38;;;;;;;;;;;;;;;;;;5055878;28;19968;-60
2023/04/24 13:20:04;;;;;;;;;;;;;;;;;;5048059;28;20342;-64
2023/04/24 13:22:30;;;;;;;;;;;;;;;;;;5046628;28;19925;-64
2023/04/24 13:24:56;;;;;;;;;;;;;;;;;;5048438;28;20016;-62
2023/04/24 13:27:22;;;;;;;;;;;;;;;;;;5051067;28;19920;-63
2023/04/24 13:29:48;;;;;;;;;;;;;;;;;;5050212;28;19929;-63
2023/04/24 13:32:14;;;;;;;;;;;;;;;;;;5049925;28;19932;-63
2023/04/24 13:34:40;;;;;;;;;;;;;;;;;;5050615;28;19925;-63
2023/04/24 13:37:06;;;;;;;;;;;;;;;;;;5050480;28;19927;-63
2023/04/24 13:39:32;;;;;;;;;;;;;;;;;;5049966;28;19924;-64
2023/04/24 13:41:58;;;;;;;;;;;;;;;;;;5049392;28;19928;-63
2023/04/24 13:44:24;;;;;;;;;;;;;;;;;;5048349;28;20449;-63
2023/04/24 13:46:50;;;;;;;;;;;;;;;;;;5047389;28;20007;-63
2023/04/24 13:49:16;;;;;;;;;;;;;;;;;;5049047;28;20181;-64
2023/04/24 13:51:41;;;;;;;;;;;;;;;;;;5049375;28;19920;-64
2023/04/24 13:54:07;;;;;;;;;;;;;;;;;;5049045;28;20003;-64
2023/04/24 13:56:33;;;;;;;;;;;;;;;;;;5050290;28;19951;-64
2023/04/24 13:59:00;;;;;;;;;;;;;;;;;;5050878;28;19932;-64
2023/04/24 14:01:26;;;;;;;;;;;;;;;;;;5049967;28;19925;-64
2023/04/24 14:03:52;;;;;;;;;;;;;;;;;;5050918;28;20286;-62
2023/04/24 14:06:18;;;;;;;;;;;;;;;;;;5050362;28;19920;-64
2023/04/24 14:08:44;;;;;;;;;;;;;;;;;;5049735;28;20311;-63
2023/04/24 14:11:10;;;;;;;;;;;;;;;;;;5050189;28;19931;-63
2023/04/24 14:13:36;;;;;;;;;;;;;;;;;;5050378;28;19929;-63
2023/04/24 14:16:02;;;;;;;;;;;;;;;;;;5050086;28;19920;-61
2023/04/24 14:18:28;;;;;;;;;;;;;;;;;;5050507;28;19986;-62
2023/04/24 14:20:54;;;;;;;;;;;;;;;;;;5050095;28;20302;-62
2023/04/24 14:23:20;;;;;;;;;;;;;;;;;;5049924;28;19929;-62
2023/04/24 14:25:48;;;;;;;;;;;;;;;;;;5049894;28;20441;-62
2023/04/24 14:28:14;;;;;;;;;;;;;;;;;;5050027;28;19987;-62
2023/04/24 14:30:40;;;;;;;;;;;;;;;;;;5050487;28;20284;-62
2023/04/24 14:33:06;;;;;;;;;;;;;;;;;;5050002;28;19921;-63
2023/04/24 14:35:33;;;;;;;;;;;;;;;;;;5050568;28;20562;-63
2023/04/24 14:37:59;;;;;;;;;;;;;;;;;;5050584;28;19932;-63
2023/04/24 14:40:25;;;;;;;;;;;;;;;;;;5049786;28;19924;-64
2023/04/24 14:42:51;;;;;;;;;;;;;;;;;;5050687;28;19928;-63
2023/04/24 14:45:17;;;;;;;;;;;;;;;;;;5048912;28;19925;-63
2023/04/24 14:47:43;;;;;;;;;;;;;;;;;;5049841;28;19925;-63
2023/04/24 14:50:09;;;;;;;;;;;;;;;;;;5050029;28;19947;-64
2023/04/24 14:52:35;;;;;;;;;;;;;;;;;;5050399;28;19928;-64
2023/04/24 14:55:02;;;;;;;;;;;;;;;;;;5048813;28;19921;-64
2023/04/24 14:57:28;;;;;;;;;;;;;;;;;;5050444;28;20007;-64
2023/04/24 14:59:54;;;;;;;;;;;;;;;;;;5050746;28;20734;-64
2023/04/24 15:02:20;;;;;;;;;;;;;;;;;;5050038;28;19924;-64
2023/04/24 15:04:46;;;;;;;;;;;;;;;;;;5050565;28;19920;-64
2023/04/24 15:07:12;;;;;;;;;;;;;;;;;;5050503;28;19940;-64
2023/04/24 15:09:38;;;;;;;;;;;;;;;;;;5049997;28;20425;-64
2023/04/24 15:12:04;;;;;;;;;;;;;;;;;;5050435;28;19932;-64
2023/04/24 15:14:30;;;;;;;;;;;;;;;;;;5050586;28;19982;-64
2023/04/24 15:16:56;;;;;;;;;;;;;;;;;;5050084;28;19924;-64
2023/04/24 15:19:22;;;;;;;;;;;;;;;;;;5050537;28;19920;-64
2023/04/24 15:21:48;;;;;;;;;;;;;;;;;;5049896;28;20500;-64
2023/04/24 15:24:14;;;;;;;;;;;;;;;;;;5049493;28;19929;-64
2023/04/24 15:26:40;;;;;;;;;;;;;;;;;;5049917;28;20287;-64
2023/04/24 15:29:06;;;;;;;;;;;;;;;;;;5052881;28;20715;-64
2023/04/24 15:31:31;;;;;;;;;;;;;;;;;;5053375;28;19921;-64
2023/04/24 15:33:57;;;;;;;;;;;;;;;;;;5053823;28;19948;-64
2023/04/24 15:36:23;;;;;;;;;;;;;;;;;;5053835;28;20007;-64
2023/04/24 15:38:49;;;;;;;;;;;;;;;;;;5053184;28;19925;-64
2023/04/24 15:41:15;;;;;;;;;;;;;;;;;;5053695;28;19921;-64
2023/04/24 15:43:42;;;;;;;;;;;;;;;;;;5053722;28;19968;-64
2023/04/24 15:46:08;;;;;;;;;;;;;;;;;;5053139;28;19932;-64
2023/04/24 15:48:34;;;;;;;;;;;;;;;;;;5053404;28;19929;-64
2023/04/24 15:51:00;;;;;;;;;;;;;;;;;;5053199;28;20015;-64
2023/04/24 15:53:27;;;;;;;;;;;;;;;;;;5053152;28;19928;-64
2023/04/24 15:55:53;;;;;;;;;;;;;;;;;;5052078;28;19947;-64
2023/04/24 15:58:19;;;;;;;;;;;;;;;;;;5053491;28;19920;-64
2023/04/24 16:00:45;;;;;;;;;;;;;;;;;;5052943;28;19928;-64
2023/04/24 16:03:11;;;;;;;;;;;;;;;;;;5053258;28;19975;-64
2023/04/24 16:05:36;;;;;;;;;;;;;;;;;;5053428;28;19996;-64
2023/04/24 16:08:02;;;;;;;;;;;;;;;;;;5052624;28;19932;-64
2023/04/24 16:10:29;;;;;;;;;;;;;;;;;;5053130;28;19924;-64
2023/04/24 16:12:55;;;;;;;;;;;;;;;;;;5052987;28;20351;-64
2023/04/24 16:15:21;;;;;;;;;;;;;;;;;;5052700;28;19995;-64
2023/04/24 16:17:47;;;;;;;;;;;;;;;;;;5053180;28;19924;-64
2023/04/24 16:20:12;;;;;;;;;;;;;;;;;;5053052;28;19921;-64
2023/04/24 16:22:38;;;;;;;;;;;;;;;;;;5052201;28;19990;-64
2023/04/24 16:25:04;;;;;;;;;;;;;;;;;;5052900;28;19929;-64
2023/04/24 16:27:30;;;;;;;;;;;;;;;;;;5052637;28;19939;-64
2023/04/24 16:29:56;;;;;;;;;;;;;;;;;;5051168;28;20294;-64
2023/04/24 16:32:22;;;;;;;;;;;;;;;;;;5052499;28;19979;-64
2023/04/24 16:34:48;;;;;;;;;;;;;;;;;;5052801;28;19932;-64
2023/04/24 16:37:15;;;;;;;;;;;;;;;;;;5051947;28;20017;-64